createdAt,value
2018-08-13T00:05:58.525Z,1.40
2018-08-13T00:12:04.731Z,1.47
2018-08-13T00:18:11.087Z,1.40
2018-08-13T00:24:15.868Z,1.33
2018-08-13T00:30:20.872Z,1.37
2018-08-13T00:36:25.832Z,1.30
2018-08-13T00:42:31.869Z,1.40
2018-08-13T00:48:36.974Z,1.50
2018-08-13T00:54:41.750Z,1.67
2018-08-13T01:00:46.518Z,1.50
2018-08-13T01:06:51.352Z,1.23
2018-08-13T01:12:56.075Z,1.37
2018-08-13T01:19:02.809Z,1.30
2018-08-13T01:25:10.511Z,1.37
2018-08-13T01:31:15.426Z,1.80
2018-08-13T01:37:20.094Z,1.23
2018-08-13T01:43:24.723Z,1.40
2018-08-13T01:49:30.807Z,1.23
2018-08-13T01:55:36.576Z,1.40
2018-08-13T02:01:41.755Z,1.00
2018-08-13T02:07:47.130Z,1.40
2018-08-13T02:13:52.223Z,1.20
2018-08-13T02:19:57.243Z,1.30
2018-08-13T02:26:03.414Z,1.67
2018-08-13T02:32:08.525Z,1.33
2018-08-13T02:38:13.776Z,1.30
2018-08-13T02:44:18.672Z,1.70
2018-08-13T02:50:23.377Z,1.57
2018-08-13T02:56:28.510Z,1.70
2018-08-13T03:02:33.934Z,1.50
2018-08-13T03:08:38.883Z,1.33
2018-08-13T03:14:43.889Z,1.50
2018-08-13T03:20:48.804Z,1.83
2018-08-13T03:26:53.611Z,1.50
2018-08-13T03:32:58.834Z,1.37
2018-08-13T03:39:05.045Z,1.50
2018-08-13T03:45:12.508Z,1.30
2018-08-13T03:51:17.537Z,1.37
2018-08-13T03:57:22.522Z,1.57
2018-08-13T04:03:27.512Z,1.67
2018-08-13T04:09:32.445Z,1.50
2018-08-13T04:15:37.697Z,1.47
2018-08-13T04:21:42.435Z,1.33
2018-08-13T04:27:47.190Z,1.70
2018-08-13T04:33:51.999Z,1.50
2018-08-13T04:39:56.800Z,1.47
2018-08-13T04:46:03.295Z,1.27
2018-08-13T04:52:08.272Z,1.77
2018-08-13T04:58:13.016Z,1.97
2018-08-13T05:04:17.910Z,1.70
2018-08-13T05:10:22.802Z,1.60
2018-08-13T05:16:27.621Z,1.20
2018-08-13T05:22:34.206Z,1.20
2018-08-13T05:28:39.211Z,1.43
2018-08-13T05:34:44.104Z,1.43
2018-08-13T05:40:48.897Z,1.20
2018-08-13T05:46:53.946Z,1.60
2018-08-13T05:52:59.248Z,1.20
2018-08-13T05:59:05.302Z,1.60
2018-08-13T06:05:11.215Z,1.30
2018-08-13T06:11:16.244Z,1.87
2018-08-13T06:17:21.130Z,1.97
2018-08-13T06:23:25.971Z,2.37
2018-08-13T06:29:31.959Z,1.60
2018-08-13T06:35:37.107Z,2.23
2018-08-13T06:41:41.899Z,1.87
2018-08-13T06:47:47.201Z,2.00
2018-08-13T06:53:52.108Z,2.23
2018-08-13T06:59:56.924Z,3.80
2018-08-13T07:06:03.898Z,2.20
2018-08-13T07:12:08.942Z,2.37
2018-08-13T07:18:14.034Z,3.10
2018-08-13T07:24:19.079Z,2.50
2018-08-13T07:30:24.244Z,1.80
2018-08-13T07:36:29.208Z,2.50
2018-08-13T07:42:35.077Z,1.83
2018-08-13T07:48:40.002Z,1.90
2018-08-13T07:54:44.748Z,1.80
2018-08-13T08:00:49.503Z,1.50
2018-08-13T08:06:54.712Z,2.00
2018-08-13T08:13:00.709Z,1.67
2018-08-13T08:19:06.505Z,1.80
2018-08-13T08:25:15.511Z,2.77
2018-08-13T08:31:20.627Z,2.50
2018-08-13T08:37:25.413Z,2.33
2018-08-13T08:43:31.291Z,1.70
2018-08-13T08:49:36.298Z,1.90
2018-08-13T08:55:41.399Z,2.07
2018-08-13T09:01:46.329Z,2.07
2018-08-13T09:07:51.116Z,2.13
2018-08-13T09:13:56.248Z,2.20
2018-08-13T09:20:17.841Z,3.03
2018-08-13T09:26:39.470Z,2.17
2018-08-13T09:33:01.457Z,2.20
2018-08-13T09:39:09.784Z,2.90
2018-08-13T09:45:15.095Z,2.20
2018-08-13T09:51:20.282Z,1.97
2018-08-13T09:57:25.333Z,2.70
2018-08-13T10:03:30.927Z,2.20
2018-08-13T10:09:36.450Z,2.50
2018-08-13T10:15:41.510Z,2.70
2018-08-13T10:21:46.348Z,2.80
2018-08-13T10:27:51.089Z,2.10
2018-08-13T10:33:56.933Z,1.80
2018-08-13T10:40:03.721Z,2.27
2018-08-13T10:46:09.445Z,1.90
2018-08-13T10:52:14.872Z,2.30
2018-08-13T10:58:19.970Z,2.80
2018-08-13T11:04:25.050Z,2.23
2018-08-13T11:10:31.869Z,2.20
2018-08-13T11:16:37.722Z,1.80
2018-08-13T11:22:43.597Z,2.23
2018-08-13T11:28:48.840Z,2.80
2018-08-13T11:34:53.833Z,2.20
2018-08-13T11:40:58.435Z,2.37
2018-08-13T11:47:05.260Z,1.90
2018-08-13T11:53:10.372Z,2.37
2018-08-13T11:59:15.005Z,2.90
2018-08-13T12:05:19.787Z,2.40
2018-08-13T12:11:24.837Z,2.60
2018-08-13T12:17:30.265Z,3.13
2018-08-13T12:23:35.511Z,2.90
2018-08-13T12:29:40.763Z,3.03
2018-08-13T12:35:45.495Z,3.07
2018-08-13T12:41:50.285Z,3.17
2018-08-13T12:47:55.176Z,2.70
2018-08-13T12:54:01.641Z,2.80
2018-08-13T13:00:10.795Z,2.80
2018-08-13T13:06:15.543Z,2.93
2018-08-13T13:12:20.392Z,2.73
2018-08-13T13:18:26.014Z,2.73
2018-08-13T13:24:32.230Z,2.20
2018-08-13T13:30:37.178Z,2.53
2018-08-13T13:36:42.161Z,2.00
2018-08-13T13:42:46.934Z,1.80
2018-08-13T13:48:51.829Z,1.67
2018-08-13T13:54:56.623Z,1.80
2018-08-13T14:01:02.362Z,2.00
2018-08-13T14:07:08.135Z,1.63
2018-08-13T14:13:12.786Z,1.53
2018-08-13T14:19:17.611Z,1.70
2018-08-13T14:25:22.382Z,2.30
2018-08-13T14:31:27.267Z,2.17
2018-08-13T14:37:32.028Z,2.40
2018-08-13T14:43:36.974Z,2.63
2018-08-13T14:49:41.768Z,2.77
2018-08-13T14:55:46.788Z,3.80
2018-08-13T15:01:51.590Z,3.40
2018-08-13T15:07:56.458Z,3.90
2018-08-13T15:14:03.609Z,3.87
2018-08-13T15:20:12.246Z,3.77
2018-08-13T15:26:17.156Z,3.43
2018-08-13T15:32:21.943Z,3.00
2018-08-13T15:38:26.755Z,3.43
2018-08-13T15:44:32.435Z,3.50
2018-08-13T15:50:37.484Z,3.60
2018-08-13T15:56:42.959Z,3.23
2018-08-13T16:02:48.259Z,3.57
2018-08-13T16:08:53.046Z,2.73
2018-08-13T16:14:58.349Z,2.70
2018-08-13T16:21:03.324Z,2.53
2018-08-13T16:27:08.069Z,3.40
2018-08-13T16:33:13.212Z,3.03
2018-08-13T16:39:18.104Z,3.20
2018-08-13T16:45:24.251Z,3.37
2018-08-13T16:51:29.729Z,3.10
2018-08-13T16:57:35.051Z,3.13
2018-08-13T17:03:39.915Z,3.37
2018-08-13T17:09:44.703Z,3.10
2018-08-13T17:15:50.255Z,3.33
2018-08-13T17:21:55.001Z,4.73
2018-08-13T17:28:00.106Z,3.73
2018-08-13T17:34:06.271Z,2.90
2018-08-13T17:40:22.177Z,2.50
2018-08-13T17:46:27.774Z,1.90
2018-08-13T17:52:34.504Z,1.33
2018-08-13T17:58:39.253Z,1.50
2018-08-13T18:04:44.312Z,1.70
2018-08-13T18:10:49.170Z,1.67
2018-08-13T18:16:54.062Z,1.90
2018-08-13T18:23:00.718Z,1.63
2018-08-13T18:29:06.073Z,1.50
2018-08-13T18:35:11.595Z,1.50
2018-08-13T18:41:16.447Z,1.83
2018-08-13T18:47:21.702Z,1.67
2018-08-13T18:53:26.501Z,1.87
2018-08-13T18:59:33.077Z,1.90
2018-08-13T19:05:38.305Z,2.23
2018-08-13T19:11:43.344Z,2.70
2018-08-13T19:17:48.381Z,2.57
2018-08-13T19:23:53.526Z,1.70
2018-08-13T19:29:59.148Z,1.97
2018-08-13T19:36:05.814Z,2.00
2018-08-13T19:42:10.701Z,2.03
2018-08-13T19:48:15.964Z,2.00
2018-08-13T19:54:20.855Z,2.27
2018-08-13T20:00:27.533Z,2.43
2018-08-13T20:06:34.008Z,2.60
2018-08-13T20:12:39.245Z,2.30
2018-08-13T20:18:43.975Z,2.03
2018-08-13T20:24:48.757Z,2.60
2018-08-13T20:30:53.743Z,2.10
2018-08-13T20:36:59.304Z,2.33
2018-08-13T20:43:05.060Z,2.87
2018-08-13T20:49:11.106Z,2.40
2018-08-13T20:55:28.445Z,2.90
2018-08-13T21:01:33.662Z,3.60
2018-08-13T21:07:38.898Z,2.70
2018-08-13T21:13:43.636Z,3.70
2018-08-13T21:19:48.420Z,2.93
2018-08-13T21:25:53.468Z,3.50
2018-08-13T21:31:59.121Z,2.90
2018-08-13T21:38:04.927Z,4.00
2018-08-13T21:44:09.635Z,3.67
2018-08-13T21:50:18.743Z,3.70
2018-08-13T21:56:23.641Z,4.27
2018-08-13T22:02:28.423Z,3.90
2018-08-13T22:08:33.419Z,4.10
2018-08-13T22:14:38.300Z,3.93
2018-08-13T22:20:43.095Z,3.70
2018-08-13T22:26:48.175Z,4.23
2018-08-13T22:32:53.068Z,3.30
2018-08-13T22:38:59.081Z,3.37
2018-08-13T22:45:04.396Z,3.50
2018-08-13T22:51:09.246Z,3.80
2018-08-13T22:57:14.371Z,3.93
2018-08-13T23:03:19.219Z,3.87
2018-08-13T23:09:24.103Z,4.10
2018-08-13T23:15:29.553Z,4.23
2018-08-13T23:21:35.679Z,3.97
2018-08-13T23:27:40.836Z,4.27
2018-08-13T23:33:45.575Z,4.27
2018-08-13T23:39:50.341Z,4.87
2018-08-13T23:45:55.699Z,5.47
2018-08-13T23:52:00.741Z,4.90
2018-08-13T23:58:08.229Z,4.57
